TNCB

Flamingo International Airport

Airport
ICAO code
TNCB
Summary
ICAO Region
CARSAM
ICAO Territory
Location

Bonaire, Leeward Antilles, Netherlands,

Coordinates
12° 8' 0" N , 68° 16' 37" W
KCC
Aw
Metar
Observation
TNCB 101855Z 10014KT 060V150 9999 SCT015 BKN022 BKN035 30/25 Q1012
Station
Flamingo Airport, Bonaire
Date/Time
2022-08-10 18:55:00
Wind direction
100°
Wind speed
14 kts
Lowest cloud amount
scattered clouds
Temperature
30°C
Dew point
25°C
Humidity
74%
QNH
1012 hPa
Weather condition
n/a

Description

Flamingo International Airport or Bonaire International Airport serves the island of Bonaire, part of the Leeward Antilles, Caribbean. (Netherlands)

Climatology

Tropical Savanna climate (Köppen climate classification Aw), rarely affected directly by tropical storms as it is on the southern fringe of the Atlantic/Caribbean Hurricane Belt.

Runways

Designator Length Width Surface Rops
10/28 2880 45 ASP Yes/Yes

Airport map

Aerial View

SKYbrary Partners:

Safety knowledge contributed by: